Loving, New Mexico
Current Conditions -  °F | °C
As of 2:53 AM on Monday 22 Dec 2014 (Local Time) from KCNM Reporting Station
Clear Clear  
Wind Chill: 60°   Ceiling: Unl
Heat Index: 60°   Visibility: 10mi
Dew Point: 28°   Wind: 25mph
Humidity: 30%   Direction: 260°W
Pressure: 29.73"   Gusts: 32mph
Location:  32.29°N, 104.1°W
Report Text: KCNM 220953Z AUTO 26022G28KT 10SM CLR 16/M02 A2973 RMK AO2 PK WND 26031/0859 SLP026 T01561022 $
Loading
Personal Weather Stations






























Interactive Weather Map New forecast layout! Learn more

10-Day Weather Forecast

Advertisements
Track Severe Weather on mobile